createdAt,value
2019-04-01T00:00:50.235Z,90.6
2019-04-01T00:02:50.472Z,90.2
2019-04-01T00:04:50.230Z,90.3
2019-04-01T00:06:50.638Z,90.2
2019-04-01T00:08:49.851Z,91.1
2019-04-01T00:10:50.144Z,91.5
2019-04-01T00:12:50.353Z,90.5
2019-04-01T00:14:50.564Z,91.4
2019-04-01T00:16:49.949Z,91.6
2019-04-01T00:19:03.984Z,92.1
2019-04-01T00:20:50.385Z,92.5
2019-04-01T00:22:51.494Z,93.0
2019-04-01T00:24:49.825Z,93.0
2019-04-01T00:26:50.279Z,92.6
2019-04-01T00:28:50.533Z,92.6
2019-04-01T00:30:50.749Z,92.3
2019-04-01T00:32:49.981Z,92.4
2019-04-01T00:34:49.776Z,92.1
2019-04-01T00:36:50.234Z,92.5
2019-04-01T00:38:50.465Z,93.1
2019-04-01T00:40:50.645Z,92.8
2019-04-01T00:42:49.873Z,93.0
2019-04-01T00:44:50.136Z,93.2
2019-04-01T00:46:50.488Z,93.2
2019-04-01T00:48:50.752Z,93.9
2019-04-01T00:50:49.933Z,93.8
2019-04-01T00:52:50.242Z,93.3
2019-04-01T00:54:50.433Z,93.2
2019-04-01T00:56:50.823Z,93.2
2019-04-01T00:58:50.049Z,93.6
2019-04-01T01:00:50.268Z,93.2
2019-04-01T01:02:50.535Z,92.8
2019-04-01T01:04:50.236Z,93.0
2019-04-01T01:06:50.675Z,92.8
2019-04-01T01:08:49.887Z,93.4
2019-04-01T01:10:50.094Z,94.0
2019-04-01T01:12:50.610Z,93.9
2019-04-01T01:14:49.958Z,93.8
2019-04-01T01:16:50.744Z,94.1
2019-04-01T01:18:50.025Z,93.8
2019-04-01T01:20:50.330Z,93.9
2019-04-01T01:22:50.498Z,94.3
2019-04-01T01:24:50.761Z,94.5
2019-04-01T01:26:50.237Z,94.3
2019-04-01T01:28:50.462Z,94.3
2019-04-01T01:30:50.718Z,94.3
2019-04-01T01:32:50.128Z,94.9
2019-04-01T01:34:49.891Z,95.2
2019-04-01T01:36:50.399Z,94.9
2019-04-01T01:38:50.708Z,95.1
2019-04-01T01:40:50.027Z,95.0
2019-04-01T01:42:50.271Z,95.1
2019-04-01T01:44:50.529Z,94.8
2019-04-01T01:46:49.867Z,95.1
2019-04-01T01:48:50.141Z,95.4
2019-04-01T01:50:50.299Z,94.9
2019-04-01T01:52:50.472Z,94.8
2019-04-01T01:54:49.785Z,94.8
2019-04-01T01:56:50.315Z,95.0
2019-04-01T01:58:50.588Z,95.0
2019-04-01T02:00:49.929Z,94.3
2019-04-01T02:02:50.229Z,94.6
2019-04-01T02:04:49.962Z,94.1
2019-04-01T02:06:50.426Z,94.0
2019-04-01T02:08:50.158Z,94.1
2019-04-01T02:10:50.445Z,94.1
2019-04-01T02:12:50.667Z,94.3
2019-04-01T02:14:49.879Z,95.3
2019-04-01T02:16:50.275Z,95.3
2019-04-01T02:18:50.444Z,95.0
2019-04-01T02:20:50.665Z,95.2
2019-04-01T02:22:49.820Z,95.0
2019-04-01T02:24:50.130Z,95.4
2019-04-01T02:26:50.494Z,95.7
2019-04-01T02:28:50.728Z,96.6
2019-04-01T02:30:50.080Z,96.6
2019-04-01T02:32:50.498Z,95.7
2019-04-01T02:34:50.169Z,95.7
2019-04-01T02:36:50.532Z,95.8
2019-04-01T02:38:50.766Z,96.3
2019-04-01T02:40:50.239Z,96.3
2019-04-01T02:42:50.478Z,96.6
2019-04-01T02:44:50.668Z,97.0
2019-04-01T02:46:50.149Z,97.1
2019-04-01T02:48:50.451Z,97.1
2019-04-01T02:50:50.653Z,97.0
2019-04-01T02:52:49.963Z,97.1
2019-04-01T02:54:50.268Z,96.9
2019-04-01T02:56:50.649Z,96.9
2019-04-01T02:58:49.874Z,96.9
2019-04-01T03:00:50.392Z,97.4
2019-04-01T03:02:50.660Z,97.5
2019-04-01T03:04:50.373Z,98.3
2019-04-01T03:06:50.693Z,98.8
2019-04-01T03:08:49.942Z,99.2
2019-04-01T03:10:50.327Z,99.5
2019-04-01T03:12:50.506Z,99.9
2019-04-01T03:14:49.822Z,100.0
2019-04-01T03:16:50.254Z,100.0
2019-04-01T03:18:50.725Z,100.0
2019-04-01T03:20:50.118Z,100.0
2019-04-01T03:22:50.333Z,100.0
2019-04-01T03:24:50.645Z,100.0
2019-04-01T03:26:49.993Z,100.0
2019-04-01T03:28:50.305Z,100.0
2019-04-01T03:30:50.651Z,100.0
2019-04-01T03:32:49.904Z,100.0
2019-04-01T03:34:50.765Z,100.0
2019-04-01T03:36:50.242Z,100.0
2019-04-01T03:38:50.506Z,100.0
2019-04-01T03:40:49.903Z,100.0
2019-04-01T03:42:50.260Z,100.0
2019-04-01T03:44:55.956Z,100.0
2019-04-01T03:46:50.528Z,100.0
2019-04-01T03:48:50.766Z,100.0
2019-04-01T03:50:49.953Z,100.0
2019-04-01T03:52:50.137Z,100.0
2019-04-01T03:54:50.460Z,100.0
2019-04-01T03:56:50.040Z,100.0
2019-04-01T03:58:50.332Z,100.0
2019-04-01T04:00:50.542Z,100.0
2019-04-01T04:02:49.899Z,100.0
2019-04-01T04:04:49.899Z,100.0
2019-04-01T04:06:50.269Z,100.0
2019-04-01T04:08:50.472Z,100.0
2019-04-01T04:10:50.568Z,100.0
2019-04-01T04:12:50.758Z,100.0
2019-04-01T04:14:52.257Z,100.0
2019-04-01T04:16:50.583Z,100.0
2019-04-01T04:18:49.840Z,100.0
2019-04-01T04:20:50.074Z,100.0
2019-04-01T04:22:50.382Z,100.0
2019-04-01T04:24:50.613Z,100.0
2019-04-01T04:26:50.695Z,100.0
2019-04-01T04:28:49.876Z,100.0
2019-04-01T04:30:50.306Z,100.0
2019-04-01T04:32:50.522Z,100.0
2019-04-01T04:34:50.315Z,100.0
2019-04-01T04:36:50.574Z,100.0
2019-04-01T04:38:50.741Z,100.0
2019-04-01T04:40:50.017Z,100.0
2019-04-01T04:42:50.161Z,100.0
2019-04-01T04:44:50.452Z,100.0
2019-04-01T04:46:49.870Z,100.0
2019-04-01T04:48:50.218Z,100.0
2019-04-01T04:50:50.495Z,100.0
2019-04-01T04:52:50.716Z,100.0
2019-04-01T04:54:49.990Z,100.0
2019-04-01T04:56:50.422Z,100.0
2019-04-01T04:58:50.606Z,100.0
2019-04-01T05:00:49.893Z,100.0
2019-04-01T05:02:50.202Z,100.0
2019-04-01T05:04:49.793Z,100.0
2019-04-01T05:06:50.244Z,100.0
2019-04-01T05:08:50.487Z,100.0
2019-04-01T05:10:50.657Z,100.0
2019-04-01T05:12:49.904Z,100.0
2019-04-01T05:14:50.184Z,100.0
2019-04-01T05:16:50.541Z,100.0
2019-04-01T05:18:49.808Z,100.0
2019-04-01T05:20:50.092Z,100.0
2019-04-01T05:22:50.271Z,100.0
2019-04-01T05:24:50.630Z,100.0
2019-04-01T05:26:49.991Z,100.0
2019-04-01T05:28:50.228Z,100.0
2019-04-01T05:30:50.465Z,100.0
2019-04-01T05:32:50.636Z,100.0
2019-04-01T05:34:50.474Z,100.0
2019-04-01T05:36:50.739Z,100.0
2019-04-01T05:38:49.976Z,100.0
2019-04-01T05:40:50.340Z,100.0
2019-04-01T05:42:50.504Z,100.0
2019-04-01T05:44:50.700Z,100.0
2019-04-01T05:46:50.083Z,100.0
2019-04-01T05:48:50.387Z,100.0
2019-04-01T05:50:50.626Z,100.0
2019-04-01T05:52:49.876Z,100.0
2019-04-01T05:54:50.066Z,100.0
2019-04-01T05:56:50.505Z,100.0
2019-04-01T05:58:50.726Z,100.0
2019-04-01T06:00:49.969Z,100.0
2019-04-01T06:02:50.434Z,100.0
2019-04-01T06:04:50.180Z,100.0
2019-04-01T06:06:50.554Z,99.3
2019-04-01T06:08:50.660Z,98.6
2019-04-01T06:10:50.017Z,97.6
2019-04-01T06:12:50.209Z,97.3
2019-04-01T06:14:50.453Z,96.2
2019-04-01T06:16:49.852Z,74
2019-04-01T06:18:50.108Z,93.8
2019-04-01T06:20:50.379Z,91.5
2019-04-01T06:22:50.546Z,90.2
2019-04-01T06:24:50.775Z,74
2019-04-01T06:26:50.238Z,74
2019-04-01T06:28:50.463Z,74
2019-04-01T06:30:50.785Z,74
2019-04-01T06:32:50.094Z,74
2019-04-01T06:34:53.560Z,74
2019-04-01T06:36:49.880Z,73
2019-04-01T06:38:50.055Z,73
2019-04-01T06:40:50.304Z,73
2019-04-01T06:42:50.504Z,72
2019-04-01T06:44:50.731Z,72
2019-04-01T06:46:50.028Z,72
2019-04-01T06:48:50.242Z,72
2019-04-01T06:50:50.476Z,71
2019-04-01T06:52:50.712Z,71
2019-04-01T06:54:50.002Z,71
2019-04-01T06:56:50.289Z,71
2019-04-01T06:58:50.477Z,71
2019-04-01T07:00:50.708Z,70
2019-04-01T07:02:49.891Z,70
2019-04-01T07:04:50.707Z,70
2019-04-01T07:06:50.102Z,70
2019-04-01T07:08:50.287Z,70
2019-04-01T07:10:50.521Z,69
2019-04-01T07:12:50.693Z,69
2019-04-01T07:14:50.102Z,69
2019-04-01T07:16:50.531Z,68
2019-04-01T07:18:50.730Z,68
2019-04-01T07:20:50.000Z,68
2019-04-01T07:22:50.260Z,67
2019-04-01T07:24:50.506Z,67
2019-04-01T07:26:49.935Z,67
2019-04-01T07:28:50.160Z,66
2019-04-01T07:30:50.420Z,66
2019-04-01T07:32:50.639Z,66
2019-04-01T07:34:50.464Z,66
2019-04-01T07:36:50.730Z,66
2019-04-01T07:38:49.890Z,66
2019-04-01T07:40:50.108Z,66
2019-04-01T07:42:50.336Z,65
2019-04-01T07:44:50.482Z,65
2019-04-01T07:46:49.938Z,64
2019-04-01T07:48:50.359Z,64
2019-04-01T07:50:50.714Z,64
2019-04-01T07:52:49.927Z,64
2019-04-01T07:54:50.158Z,64
2019-04-01T07:56:50.615Z,64
2019-04-01T07:58:49.815Z,64
2019-04-01T08:00:50.018Z,64
2019-04-01T08:02:50.298Z,64
2019-04-01T08:04:50.004Z,64
2019-04-01T08:06:50.271Z,64
2019-04-01T08:08:50.458Z,64
2019-04-01T08:10:50.707Z,64
2019-04-01T08:12:49.902Z,64
2019-04-01T08:14:50.119Z,64
2019-04-01T08:16:50.506Z,64
2019-04-01T08:18:50.710Z,64
2019-04-01T08:20:49.940Z,64
2019-04-01T08:22:50.184Z,64
2019-04-01T08:24:50.355Z,64
2019-04-01T08:26:50.741Z,64
2019-04-01T08:28:49.931Z,64
2019-04-01T08:30:50.169Z,62
2019-04-01T08:32:50.362Z,62
2019-04-01T08:34:50.064Z,61
2019-04-01T08:36:50.434Z,61
2019-04-01T08:38:50.706Z,61
2019-04-01T08:40:50.777Z,60
2019-04-01T08:42:49.856Z,60
2019-04-01T08:44:49.859Z,60
2019-04-01T08:46:50.175Z,60
2019-04-01T08:48:50.142Z,59
2019-04-01T08:50:50.118Z,60
2019-04-01T08:52:50.082Z,60
2019-04-01T08:54:52.737Z,60
2019-04-01T08:56:49.785Z,60
2019-04-01T08:58:49.870Z,60
2019-04-01T09:00:49.893Z,60
2019-04-01T09:02:50.037Z,60
2019-04-01T09:04:50.391Z,60
2019-04-01T09:06:50.614Z,59
2019-04-01T09:08:50.611Z,59
2019-04-01T09:10:50.567Z,59
2019-04-01T09:12:50.587Z,59
2019-04-01T09:14:50.688Z,59
2019-04-01T09:16:49.864Z,59
2019-04-01T09:18:50.008Z,59
2019-04-01T09:20:49.978Z,58
2019-04-01T09:22:50.105Z,58
2019-04-01T09:24:50.077Z,58
2019-04-01T09:26:50.263Z,58
2019-04-01T09:28:50.286Z,58
2019-04-01T09:30:50.327Z,58
2019-04-01T09:32:50.408Z,58
2019-04-01T09:34:49.859Z,58
2019-04-01T09:36:50.163Z,58
2019-04-01T09:38:50.142Z,57
2019-04-01T09:40:50.215Z,58
2019-04-01T09:42:50.261Z,58
2019-04-01T09:44:50.331Z,58
2019-04-01T09:46:50.774Z,58
2019-04-01T09:48:49.805Z,57
2019-04-01T09:50:49.913Z,57
2019-04-01T09:52:49.895Z,57
2019-04-01T09:54:49.952Z,57
2019-04-01T09:56:49.995Z,57
2019-04-01T09:58:50.033Z,57
2019-04-01T10:00:53.935Z,57
2019-04-01T10:02:49.922Z,57
2019-04-01T10:04:50.532Z,57
2019-04-01T10:06:50.639Z,57
2019-04-01T10:08:50.629Z,57
2019-04-01T10:10:50.660Z,57
2019-04-01T10:12:50.705Z,57
2019-04-01T10:14:50.742Z,57
2019-04-01T10:16:49.798Z,57
2019-04-01T10:18:49.788Z,57
2019-04-01T10:20:49.841Z,57
2019-04-01T10:22:49.955Z,57
2019-04-01T10:24:50.048Z,57
2019-04-01T10:26:50.246Z,57
2019-04-01T10:28:50.334Z,57
2019-04-01T10:30:50.416Z,57
2019-04-01T10:32:50.494Z,55
2019-04-01T10:34:49.853Z,55
2019-04-01T10:36:50.077Z,56
2019-04-01T10:38:50.148Z,56
2019-04-01T10:40:50.211Z,56
2019-04-01T10:42:50.255Z,56
2019-04-01T10:44:50.329Z,56
2019-04-01T10:46:50.906Z,56
2019-04-01T10:48:50.192Z,56
2019-04-01T10:50:50.630Z,56
2019-04-01T10:52:50.900Z,56
2019-04-01T10:54:50.221Z,56
2019-04-01T10:56:50.810Z,55
2019-04-01T10:58:50.155Z,55
2019-04-01T11:00:50.536Z,54
2019-04-01T11:02:51.006Z,54
2019-04-01T11:04:50.807Z,54
2019-04-01T11:06:50.157Z,54
2019-04-01T11:08:50.578Z,54
2019-04-01T11:10:50.588Z,54
2019-04-01T11:12:50.650Z,54
2019-04-01T11:14:52.500Z,54
2019-04-01T11:16:50.890Z,53
2019-04-01T11:18:50.034Z,53
2019-04-01T11:20:50.241Z,53
2019-04-01T11:22:50.464Z,53
2019-04-01T11:24:50.617Z,53
2019-04-01T11:26:49.974Z,53
2019-04-01T11:28:50.341Z,53
2019-04-01T11:30:50.956Z,53
2019-04-01T11:32:50.350Z,53
2019-04-01T11:34:50.178Z,53
2019-04-01T11:36:50.726Z,53
2019-04-01T11:38:50.353Z,53
2019-04-01T11:40:50.925Z,54
2019-04-01T11:42:50.515Z,53
2019-04-01T11:44:52.990Z,53
2019-04-01T11:46:50.640Z,53
2019-04-01T11:48:50.949Z,52
2019-04-01T11:50:50.495Z,52
2019-04-01T11:52:51.054Z,52
2019-04-01T11:54:50.322Z,52
2019-04-01T11:56:50.579Z,52
2019-04-01T11:58:50.784Z,51
2019-04-01T12:00:49.993Z,51
2019-04-01T12:02:50.295Z,51
2019-04-01T12:04:50.741Z,51
2019-04-01T12:06:50.139Z,51
2019-04-01T12:08:50.406Z,51
2019-04-01T12:10:50.667Z,51
2019-04-01T12:12:50.799Z,51
2019-04-01T12:14:50.042Z,50
2019-04-01T12:16:50.487Z,50
2019-04-01T12:18:50.775Z,50
2019-04-01T12:20:50.443Z,50
2019-04-01T12:22:50.793Z,50
2019-04-01T12:24:49.948Z,50
2019-04-01T12:26:50.454Z,50
2019-04-01T12:28:50.903Z,50
2019-04-01T12:30:50.099Z,50
2019-04-01T12:32:50.555Z,50
2019-04-01T12:34:50.205Z,50
2019-04-01T12:36:50.602Z,49
2019-04-01T12:38:54.450Z,50
2019-04-01T12:40:50.778Z,50
2019-04-01T12:42:51.606Z,50
2019-04-01T12:44:50.731Z,50
2019-04-01T12:46:50.055Z,49
2019-04-01T12:48:50.287Z,50
2019-04-01T12:50:50.520Z,49
2019-04-01T12:52:50.650Z,49
2019-04-01T12:54:50.794Z,49
2019-04-01T12:56:50.042Z,49
2019-04-01T12:58:50.256Z,49
2019-04-01T13:00:52.445Z,49
2019-04-01T13:02:50.619Z,49
2019-04-01T13:04:52.127Z,49
2019-04-01T13:06:52.366Z,48
2019-04-01T13:08:50.659Z,48
2019-04-01T13:10:51.248Z,48
2019-04-01T13:12:54.849Z,48
2019-04-01T13:14:50.053Z,48
2019-04-01T13:16:50.457Z,48
2019-04-01T13:18:50.600Z,48
2019-04-01T13:20:52.765Z,48
2019-04-01T13:22:50.901Z,48
2019-04-01T13:24:50.132Z,47
2019-04-01T13:26:51.640Z,48
2019-04-01T13:28:50.922Z,48
2019-04-01T13:30:50.141Z,48
2019-04-01T13:32:50.315Z,48
2019-04-01T13:34:50.742Z,48
2019-04-01T13:36:50.788Z,48
2019-04-01T13:38:50.035Z,48
2019-04-01T13:40:50.277Z,47
2019-04-01T13:42:50.469Z,47
2019-04-01T13:44:52.338Z,47
2019-04-01T13:46:51.521Z,47
2019-04-01T13:49:05.265Z,47
2019-04-01T13:50:50.766Z,46
2019-04-01T13:52:49.952Z,46
2019-04-01T13:54:50.143Z,46
2019-04-01T13:56:50.530Z,46
2019-04-01T13:58:50.624Z,46
2019-04-01T14:00:50.864Z,46
2019-04-01T14:02:50.060Z,47
2019-04-01T14:04:50.647Z,46
2019-04-01T14:06:50.160Z,46
2019-04-01T14:08:51.961Z,46
2019-04-01T14:10:50.525Z,46
2019-04-01T14:12:50.746Z,46
2019-04-01T14:14:50.908Z,46
2019-04-01T14:16:50.315Z,45
2019-04-01T14:18:50.557Z,45
2019-04-01T14:20:50.832Z,45
2019-04-01T14:22:53.871Z,46
2019-04-01T14:24:50.127Z,46
2019-04-01T14:26:50.482Z,45
2019-04-01T14:28:50.729Z,46
2019-04-01T14:30:50.942Z,46
2019-04-01T14:32:50.179Z,46
2019-04-01T14:34:51.210Z,46
2019-04-01T14:36:50.649Z,46
2019-04-01T14:38:50.857Z,46
2019-04-01T14:40:50.082Z,46
2019-04-01T14:42:50.297Z,45
2019-04-01T14:44:50.442Z,45
2019-04-01T14:46:50.916Z,45
2019-04-01T14:48:50.025Z,45
2019-04-01T14:50:50.170Z,45
2019-04-01T14:52:50.437Z,45
2019-04-01T14:54:50.597Z,45
2019-04-01T14:56:50.018Z,45
2019-04-01T14:58:50.137Z,44
2019-04-01T15:00:50.374Z,45
2019-04-01T15:02:50.626Z,45
2019-04-01T15:04:50.124Z,45
2019-04-01T15:06:50.409Z,45
2019-04-01T15:08:50.579Z,45
2019-04-01T15:10:50.806Z,45
2019-04-01T15:13:06.648Z,45
2019-04-01T15:14:50.183Z,45
2019-04-01T15:16:50.555Z,45
2019-04-01T15:18:50.825Z,45
2019-04-01T15:20:50.104Z,45
2019-04-01T15:22:50.511Z,45
2019-04-01T15:24:50.678Z,45
2019-04-01T15:26:50.145Z,45
2019-04-01T15:28:50.366Z,45
2019-04-01T15:30:50.533Z,45
2019-04-01T15:32:52.745Z,45
2019-04-01T15:34:50.457Z,44
2019-04-01T15:36:50.822Z,44
2019-04-01T15:38:51.852Z,44
2019-04-01T15:40:50.136Z,44
2019-04-01T15:42:50.376Z,45
2019-04-01T15:44:50.641Z,45
2019-04-01T15:46:50.078Z,45
2019-04-01T15:48:50.297Z,45
2019-04-01T15:50:50.522Z,45
2019-04-01T15:52:50.840Z,45
2019-04-01T15:54:50.012Z,45
2019-04-01T15:56:50.340Z,45
2019-04-01T15:58:51.535Z,45
2019-04-01T16:00:50.713Z,44
2019-04-01T16:02:49.990Z,44
2019-04-01T16:04:50.536Z,44
2019-04-01T16:06:50.710Z,44
2019-04-01T16:08:50.764Z,45
2019-04-01T16:10:50.930Z,44
2019-04-01T16:12:49.978Z,44
2019-04-01T16:14:50.205Z,44
2019-04-01T16:16:50.390Z,44
2019-04-01T16:18:50.495Z,45
2019-04-01T16:20:50.463Z,45
2019-04-01T16:22:50.757Z,45
2019-04-01T16:24:49.921Z,45.2
2019-04-01T16:26:50.192Z,44.4
2019-04-01T16:28:50.247Z,45
2019-04-01T16:30:50.334Z,44.3
2019-04-01T16:32:50.353Z,45.8
2019-04-01T16:34:50.811Z,45.5
2019-04-01T16:36:50.011Z,45.5
2019-04-01T16:38:50.109Z,45.6
2019-04-01T16:40:52.832Z,46.2
2019-04-01T16:42:49.996Z,46.5
2019-04-01T16:44:49.977Z,47.6
2019-04-01T16:46:50.220Z,47.3
2019-04-01T16:48:50.292Z,47.4
2019-04-01T16:50:50.371Z,48.0
2019-04-01T16:52:50.653Z,48.0
2019-04-01T16:54:50.739Z,47.5
2019-04-01T16:56:50.207Z,47.5
2019-04-01T16:58:50.289Z,48.2
2019-04-01T17:00:50.369Z,48.3
2019-04-01T17:02:52.084Z,49.3
2019-04-01T17:04:50.469Z,49.1
2019-04-01T17:06:49.776Z,49.6
2019-04-01T17:08:49.801Z,49.8
2019-04-01T17:10:49.880Z,50.7
2019-04-01T17:12:49.964Z,50.4
2019-04-01T17:14:49.991Z,50.0
2019-04-01T17:16:50.117Z,50.2
2019-04-01T17:18:50.173Z,50.4
2019-04-01T17:20:50.240Z,50.7
2019-04-01T17:22:50.357Z,51.4
2019-04-01T17:24:50.426Z,51.4
2019-04-01T17:26:51.703Z,51.5
2019-04-01T17:28:50.766Z,52.5
2019-04-01T17:30:49.816Z,52.2
2019-04-01T17:32:49.963Z,52.3
2019-04-01T17:34:50.474Z,52.8
2019-04-01T17:36:50.625Z,53.7
2019-04-01T17:38:50.593Z,53.8
2019-04-01T17:40:50.608Z,53.7
2019-04-01T17:42:50.745Z,53.6
2019-04-01T17:44:49.815Z,53.6
2019-04-01T17:46:49.969Z,53.7
2019-04-01T17:48:50.022Z,54.4
2019-04-01T17:50:50.012Z,54.4
2019-04-01T17:52:50.129Z,55.3
2019-04-01T17:54:50.231Z,54.9
2019-04-01T17:56:50.427Z,55.8
2019-04-01T17:58:50.494Z,55.9
2019-04-01T18:00:50.538Z,56.4
2019-04-01T18:02:50.526Z,56.4
2019-04-01T18:04:49.926Z,57.1
2019-04-01T18:06:50.123Z,56.5
2019-04-01T18:08:50.152Z,56.9
2019-04-01T18:10:50.297Z,57.2
2019-04-01T18:12:52.404Z,57.3
2019-04-01T18:14:50.524Z,57.3
2019-04-01T18:16:50.738Z,58.4
2019-04-01T18:18:49.791Z,58.0
2019-04-01T18:20:49.859Z,57.6
2019-04-01T18:22:49.911Z,57.9
2019-04-01T18:24:49.908Z,57.5
2019-04-01T18:26:50.093Z,58.1
2019-04-01T18:28:50.176Z,58.6
2019-04-01T18:30:50.220Z,58.2
2019-04-01T18:32:55.801Z,58.4
2019-04-01T18:34:50.445Z,58.3
2019-04-01T18:36:52.824Z,57.3
2019-04-01T18:38:49.852Z,57.3
2019-04-01T18:40:49.924Z,57.4
2019-04-01T18:42:49.939Z,57.2
2019-04-01T18:44:49.962Z,57.5
2019-04-01T18:46:50.221Z,57.7
2019-04-01T18:48:50.290Z,57.5
2019-04-01T18:50:50.348Z,57.4
2019-04-01T18:52:50.390Z,57.4
2019-04-01T18:54:50.389Z,57.4
2019-04-01T18:56:50.582Z,58.6
2019-04-01T18:58:50.578Z,58.5
2019-04-01T19:00:50.638Z,58.4
2019-04-01T19:02:50.668Z,58.7
2019-04-01T19:04:50.063Z,59.9
2019-04-01T19:06:50.322Z,59.8
2019-04-01T19:08:50.344Z,59.5
2019-04-01T19:11:03.155Z,59.7
2019-04-01T19:12:50.404Z,60.3
2019-04-01T19:14:50.450Z,59.5
2019-04-01T19:16:50.674Z,60.2
2019-04-01T19:18:49.765Z,60.2
2019-04-01T19:21:05.325Z,60.6
2019-04-01T19:22:49.917Z,60.4
2019-04-01T19:24:49.901Z,60.3
2019-04-01T19:26:50.266Z,59.9
2019-04-01T19:28:50.248Z,60.1
2019-04-01T19:30:50.276Z,60.9
2019-04-01T19:32:50.388Z,61.7
2019-04-01T19:34:49.851Z,62.1
2019-04-01T19:36:49.970Z,62.4
2019-04-01T19:38:50.031Z,63.2
2019-04-01T19:40:50.056Z,63.5
2019-04-01T19:42:50.089Z,63.1
2019-04-01T19:44:50.124Z,63.7
2019-04-01T19:46:50.264Z,63.1
2019-04-01T19:48:50.244Z,63.3
2019-04-01T19:50:50.263Z,63.7
2019-04-01T19:52:50.310Z,64.2
2019-04-01T19:54:50.444Z,62.8
2019-04-01T19:56:49.778Z,63.6
2019-04-01T19:58:49.832Z,63.9
2019-04-01T20:00:49.913Z,64.0
2019-04-01T20:02:50.031Z,63.8
2019-04-01T20:04:51.332Z,64.1
2019-04-01T20:06:50.378Z,64.5
2019-04-01T20:08:50.375Z,63.6
2019-04-01T20:10:50.390Z,63.7
2019-04-01T20:12:51.371Z,63.5
2019-04-01T20:14:50.366Z,64.2
2019-04-01T20:16:50.499Z,63.6
2019-04-01T20:18:50.521Z,63.8
2019-04-01T20:20:50.617Z,62.8
2019-04-01T20:22:50.682Z,63.1
2019-04-01T20:24:50.749Z,62.6
2019-04-01T20:26:49.884Z,62.5
2019-04-01T20:28:49.950Z,62.0
2019-04-01T20:30:49.882Z,62.7
2019-04-01T20:32:50.103Z,64.0
2019-04-01T20:35:00.158Z,63.3
2019-04-01T20:36:50.246Z,64.0
2019-04-01T20:38:50.408Z,62.9
2019-04-01T20:40:50.451Z,62.9
2019-04-01T20:42:50.715Z,64.8
2019-04-01T20:44:49.792Z,64.2
2019-04-01T20:46:49.912Z,63.1
2019-04-01T20:48:50.009Z,63.2
2019-04-01T20:50:50.205Z,63.7
2019-04-01T20:52:51.025Z,64.2
2019-04-01T20:54:50.159Z,64.0
2019-04-01T20:56:50.369Z,63.9
2019-04-01T20:58:50.391Z,63.7
2019-04-01T21:00:50.544Z,63.4
2019-04-01T21:02:50.521Z,63.4
2019-04-01T21:04:50.078Z,63.8
2019-04-01T21:06:50.747Z,63.8
2019-04-01T21:08:50.768Z,63.9
2019-04-01T21:10:49.870Z,64.4
2019-04-01T21:12:49.936Z,64.9
2019-04-01T21:14:50.023Z,65.8
2019-04-01T21:16:50.203Z,64.4
2019-04-01T21:18:50.338Z,63.7
2019-04-01T21:20:50.458Z,64.2
2019-04-01T21:22:50.505Z,64.3
2019-04-01T21:24:50.525Z,64.0
2019-04-01T21:26:50.797Z,63.9
2019-04-01T21:28:50.741Z,64.0
2019-04-01T21:30:49.796Z,63.4
2019-04-01T21:32:49.786Z,64.3
2019-04-01T21:34:50.287Z,64.1
2019-04-01T21:36:50.498Z,64.0
2019-04-01T21:38:50.516Z,64.0
2019-04-01T21:40:50.537Z,64.0
2019-04-01T21:42:52.239Z,63.5
2019-04-01T21:44:50.293Z,62.8
2019-04-01T21:46:50.426Z,63.3
2019-04-01T21:48:50.409Z,63.3
2019-04-01T21:50:50.523Z,63.7
2019-04-01T21:52:50.606Z,64.5
2019-04-01T21:54:50.625Z,64.2
2019-04-01T21:56:49.873Z,65.7
2019-04-01T21:58:49.947Z,64.4
2019-04-01T22:00:50.033Z,64.2
2019-04-01T22:02:50.119Z,64.0
2019-04-01T22:04:50.604Z,64.1
2019-04-01T22:06:50.724Z,65.3
2019-04-01T22:08:50.706Z,65.4
2019-04-01T22:10:50.753Z,65.1
2019-04-01T22:12:53.052Z,63.4
2019-04-01T22:14:50.141Z,64.3
2019-04-01T22:16:50.346Z,64.0
2019-04-01T22:18:50.408Z,63.8
2019-04-01T22:20:50.439Z,65.0
2019-04-01T22:22:50.567Z,64.4
2019-04-01T22:24:50.548Z,65.0
2019-04-01T22:26:50.718Z,66.1
2019-04-01T22:28:51.864Z,66.2
2019-04-01T22:30:49.963Z,66.1
2019-04-01T22:32:49.949Z,67.9
2019-04-01T22:34:50.318Z,67.4
2019-04-01T22:36:50.513Z,66.6
2019-04-01T22:38:50.620Z,66.5
2019-04-01T22:40:50.768Z,67.4
2019-04-01T22:42:49.870Z,66.8
2019-04-01T22:44:49.965Z,67.8
2019-04-01T22:46:50.094Z,66.2
2019-04-01T22:48:50.121Z,66.7
2019-04-01T22:50:50.180Z,67.4
2019-04-01T22:52:50.279Z,66.8
2019-04-01T22:54:50.375Z,66.9
2019-04-01T22:56:50.602Z,67.7
2019-04-01T22:58:51.930Z,69.8
2019-04-01T23:00:49.926Z,71.8
2019-04-01T23:02:50.099Z,70.2
2019-04-01T23:04:50.508Z,70.3
2019-04-01T23:06:50.737Z,70.3
2019-04-01T23:08:49.820Z,71.6
2019-04-01T23:10:50.766Z,71.8
2019-04-01T23:12:51.840Z,71.9
2019-04-01T23:14:49.852Z,71.9
2019-04-01T23:16:50.248Z,74.3
2019-04-01T23:18:50.286Z,71.9
2019-04-01T23:20:50.361Z,71.3
2019-04-01T23:22:50.402Z,70.3
2019-04-01T23:24:50.475Z,70.6
2019-04-01T23:26:50.566Z,71.2
2019-04-01T23:28:50.654Z,72.6
2019-04-01T23:30:50.691Z,74.0
2019-04-01T23:32:49.861Z,75.9
2019-04-01T23:34:50.333Z,75.6
2019-04-01T23:36:50.437Z,76.6
2019-04-01T23:38:50.527Z,75.7
2019-04-01T23:40:50.557Z,74.5
2019-04-01T23:42:50.619Z,76.8
2019-04-01T23:44:52.971Z,75.8
2019-04-01T23:46:50.218Z,75.6
2019-04-01T23:48:50.246Z,77.3
2019-04-01T23:50:50.298Z,77.7
2019-04-01T23:52:50.336Z,78.2
2019-04-01T23:54:50.356Z,77.4
2019-04-01T23:56:50.633Z,77.9
2019-04-01T23:58:51.896Z,77.8
